Time;durP1;ratioP1;P1;durP2;ratioP2;P2;SDS_P1;SDS_P2;PMS_P1;PMS_P2;Temp;Humidity;BMP_temperature;BMP_pressure;BME280_temperature;BME280_humidity;BME280_pressure;Samples;Min_cycle;Max_cycle;Signal;HPM_P1;HPM_P2
2022/06/23 00:01:23;;;;;;;4.95;2.70;;;19.00;53.50;;;;;;4899268;29;20042;-80
2022/06/23 00:03:54;;;;;;;4.20;2.20;;;18.90;53.50;;;;;;4920613;29;20035;-79
2022/06/23 00:06:57;;;;;;;3.47;2.13;;;18.90;53.30;;;;;;4928297;28;20447;-79
2022/06/23 00:09:39;;;;;;;6.82;2.03;;;18.80;53.70;;;;;;4950114;28;20865;-79
2022/06/23 00:12:19;;;;;;;5.60;2.20;;;18.60;54.10;;;;;;4933971;29;20501;-80
2022/06/23 00:14:51;;;;;;;4.68;1.95;;;18.70;54.40;;;;;;4950055;29;20126;-80
2022/06/23 00:17:29;;;;;;;2.45;2.15;;;18.50;54.50;;;;;;4931692;29;20036;-79
2022/06/23 00:19:56;;;;;;;5.65;2.33;;;18.50;54.20;;;;;;4949348;28;20118;-79
2022/06/23 00:22:24;;;;;;;6.63;2.05;;;18.40;54.60;;;;;;4930889;29;20035;-80
2022/06/23 00:24:52;;;;;;;3.85;1.80;;;18.40;55.10;;;;;;4900824;29;20035;-79
2022/06/23 00:27:18;;;;;;;4.75;2.42;;;18.40;55.10;;;;;;4921700;29;20035;-79
2022/06/23 00:29:46;;;;;;;4.63;2.15;;;18.40;55.30;;;;;;4923541;29;20550;-80
2022/06/23 00:32:12;;;;;;;4.13;2.58;;;18.40;54.50;;;;;;4918377;29;20043;-80
2022/06/23 00:34:39;;;;;;;3.10;2.13;;;18.20;55.10;;;;;;4935385;29;20114;-80
2022/06/23 00:37:14;;;;;;;8.15;2.53;;;18.20;54.30;;;;;;4931801;29;20495;-80
2022/06/23 00:39:59;;;;;;;3.60;2.30;;;18.10;54.00;;;;;;4931351;29;20412;-79
2022/06/23 00:42:28;;;;;;;5.03;2.47;;;18.10;53.60;;;;;;4931674;29;20487;-80
2022/06/23 00:45:07;;;;;;;2.42;1.90;;;18.10;54.30;;;;;;4950007;28;20059;-79
2022/06/23 00:47:56;;;;;;;6.20;2.45;;;18.10;53.70;;;;;;4899827;29;20122;-80
2022/06/23 00:50:53;;;;;;;4.50;2.22;;;18.00;54.60;;;;;;4933106;29;20089;-80
2022/06/23 00:53:22;;;;;;;5.40;2.28;;;17.80;56.00;;;;;;4929997;29;20043;-80
2022/06/23 00:55:54;;;;;;;3.03;2.05;;;17.80;55.20;;;;;;4916294;29;20050;-80
2022/06/23 00:58:30;;;;;;;4.68;2.40;;;17.90;55.20;;;;;;4949292;28;20103;-79
2022/06/23 01:01:02;;;;;;;6.25;2.33;;;17.80;55.90;;;;;;4929032;29;20034;-80
2022/06/23 01:03:37;;;;;;;5.68;2.45;;;17.70;57.50;;;;;;4929585;29;20495;-80
2022/06/23 01:06:17;;;;;;;5.70;2.03;;;17.60;56.20;;;;;;4916993;29;20038;-80
2022/06/23 01:08:45;;;;;;;6.57;2.58;;;17.70;55.60;;;;;;4914964;28;20504;-80
2022/06/23 01:11:15;;;;;;;3.47;2.35;;;17.60;55.60;;;;;;4931544;29;20040;-80
2022/06/23 01:13:49;;;;;;;8.18;2.50;;;17.60;55.70;;;;;;4917259;29;20106;-80
2022/06/23 01:16:21;;;;;;;3.38;2.42;;;17.40;56.90;;;;;;4924284;29;20035;-80
2022/06/23 01:18:54;;;;;;;5.15;2.70;;;17.40;56.90;;;;;;4910758;28;20047;-79
2022/06/23 01:21:23;;;;;;;2.75;2.35;;;17.30;58.10;;;;;;4913862;29;20035;-79
2022/06/23 01:24:14;;;;;;;3.92;2.50;;;17.50;55.30;;;;;;4928749;28;20086;-79
2022/06/23 01:26:55;;;;;;;5.22;3.13;;;17.50;55.10;;;;;;4945106;28;20028;-79
2022/06/23 01:29:34;;;;;;;3.58;2.70;;;17.50;55.10;;;;;;4916473;29;20024;-79
2022/06/23 01:32:14;;;;;;;5.38;3.60;;;17.30;58.00;;;;;;4925851;29;20043;-78
2022/06/23 01:34:59;;;;;;;5.57;3.47;;;17.30;56.30;;;;;;4945692;28;20083;-79
2022/06/23 01:37:48;;;;;;;5.22;2.90;;;17.20;56.70;;;;;;4942605;28;20086;-79
2022/06/23 01:40:20;;;;;;;5.53;3.60;;;17.20;56.40;;;;;;4915923;29;20047;-79
2022/06/23 01:42:59;;;;;;;8.10;3.33;;;17.00;57.60;;;;;;4915482;28;20035;-79
2022/06/23 01:45:30;;;;;;;6.13;3.53;;;16.90;58.00;;;;;;4919483;29;20531;-79
2022/06/23 01:48:08;;;;;;;6.75;3.30;;;16.80;58.90;;;;;;4916382;29;20490;-79
2022/06/23 01:50:50;;;;;;;3.53;2.88;;;16.90;60.60;;;;;;4946408;28;20623;-78
2022/06/23 01:53:29;;;;;;;6.88;3.10;;;16.90;57.10;;;;;;4931881;29;20027;-79
2022/06/23 01:56:06;;;;;;;3.95;3.03;;;16.80;58.80;;;;;;4899705;29;20047;-80
2022/06/23 01:58:55;;;;;;;6.47;3.38;;;16.80;58.40;;;;;;4913260;28;20036;-79
2022/06/23 02:01:28;;;;;;;9.75;3.33;;;16.80;58.80;;;;;;4946775;28;20031;-79
2022/06/23 02:04:06;;;;;;;4.90;2.80;;;16.70;58.30;;;;;;4916780;29;20031;-79
2022/06/23 02:06:40;;;;;;;9.43;3.30;;;16.70;57.80;;;;;;4927932;29;20054;-79
2022/06/23 02:09:33;;;;;;;6.60;3.28;;;16.50;59.80;;;;;;4929511;29;20538;-79
2022/06/23 02:11:58;;;;;;;4.68;3.38;;;16.40;60.20;;;;;;4924115;29;20088;-79
2022/06/23 02:14:43;;;;;;;3.38;2.75;;;16.40;62.20;;;;;;4901236;29;20442;-79
2022/06/23 02:17:18;;;;;;;3.45;2.17;;;16.50;60.80;;;;;;4932121;29;20031;-79
2022/06/23 02:19:49;;;;;;;5.47;3.40;;;16.60;58.80;;;;;;4947678;28;20558;-79
2022/06/23 02:22:30;;;;;;;4.07;3.00;;;16.60;58.60;;;;;;4913993;29;20067;-80
2022/06/23 02:25:25;;;;;;;3.70;2.72;;;16.60;57.70;;;;;;4929062;28;20031;-79
2022/06/23 02:27:52;;;;;;;6.15;3.30;;;16.90;57.50;;;;;;4913470;28;20178;-81
2022/06/23 02:30:21;;;;;;;4.93;3.35;;;16.60;56.50;;;;;;4917369;29;20174;-82
2022/06/23 02:32:54;;;;;;;3.30;2.60;;;16.60;58.40;;;;;;4928671;28;20027;-81
2022/06/23 02:35:33;;;;;;;2.95;2.72;;;16.70;57.50;;;;;;4911652;29;20487;-81
2022/06/23 02:38:09;;;;;;;8.38;3.50;;;16.80;57.40;;;;;;4931792;29;20380;-81
2022/06/23 02:40:41;;;;;;;4.15;3.30;;;16.40;57.00;;;;;;4914133;29;20044;-81
2022/06/23 02:43:12;;;;;;;3.67;3.33;;;16.20;59.50;;;;;;4928182;29;20118;-81
2022/06/23 02:45:59;;;;;;;6.68;3.08;;;16.20;61.60;;;;;;4931645;28;20031;-79
2022/06/23 02:48:35;;;;;;;5.57;3.25;;;16.40;58.60;;;;;;4933674;29;20027;-80
2022/06/23 02:51:04;;;;;;;6.80;3.38;;;16.20;58.70;;;;;;4932494;29;20434;-81
2022/06/23 02:53:57;;;;;;;5.32;2.80;;;16.00;59.40;;;;;;4939249;28;20027;-79
2022/06/23 02:56:32;;;;;;;4.30;3.03;;;16.00;60.70;;;;;;4929844;29;20034;-82
2022/06/23 02:59:25;;;;;;;3.42;3.13;;;16.10;62.00;;;;;;4932140;28;20118;-80
2022/06/23 03:01:56;;;;;;;12.55;3.50;;;16.00;59.90;;;;;;4931525;29;20039;-81
2022/06/23 03:04:26;;;;;;;4.38;2.90;;;16.00;60.70;;;;;;4917830;29;20467;-80
2022/06/23 03:06:51;;;;;;;7.25;3.85;;;16.00;59.40;;;;;;4916568;29;20043;-81
2022/06/23 03:09:28;;;;;;;4.85;3.75;;;16.10;59.70;;;;;;4939465;29;20493;-82
2022/06/23 03:12:18;;;;;;;5.88;4.28;;;16.00;59.10;;;;;;4914994;29;20039;-82
2022/06/23 03:14:56;;;;;;;11.07;4.75;;;15.90;58.90;;;;;;4917169;28;20043;-81
2022/06/23 03:17:29;;;;;;;10.30;4.05;;;16.00;58.60;;;;;;4947034;28;20434;-81
2022/06/23 03:20:02;;;;;;;6.18;3.60;;;15.90;58.50;;;;;;4915688;29;20039;-81
2022/06/23 03:22:42;;;;;;;4.50;3.35;;;15.80;58.80;;;;;;4915706;29;20042;-81
2022/06/23 03:25:32;;;;;;;6.55;3.15;;;15.60;59.90;;;;;;4934396;29;20039;-80
2022/06/23 03:28:11;;;;;;;4.70;3.00;;;15.60;61.20;;;;;;4921878;29;20067;-80
2022/06/23 03:31:09;;;;;;;7.75;3.70;;;15.60;61.10;;;;;;4931843;29;20039;-80
2022/06/23 03:33:37;;;;;;;4.75;3.67;;;15.70;63.40;;;;;;4939264;29;20487;-82
2022/06/23 03:36:26;;;;;;;9.98;3.38;;;15.70;61.20;;;;;;4952886;28;20035;-82
2022/06/23 03:41:50;;;;;;;6.00;3.50;;;15.70;63.90;;;;;;4933035;29;20090;-80
2022/06/23 03:44:18;;;;;;;4.22;3.17;;;15.70;64.30;;;;;;4934114;29;20043;-81
2022/06/23 03:46:55;;;;;;;4.43;3.55;;;15.70;63.60;;;;;;4951923;28;20491;-80
2022/06/23 03:49:41;;;;;;;3.95;3.50;;;15.70;63.60;;;;;;4923834;29;20069;-79
2022/06/23 03:52:18;;;;;;;7.18;3.88;;;15.70;62.70;;;;;;4936204;29;20035;-81
2022/06/23 03:54:59;;;;;;;3.97;3.33;;;15.60;62.70;;;;;;4932012;28;20031;-81
2022/06/23 03:57:35;;;;;;;4.28;3.33;;;15.60;62.50;;;;;;4919018;29;20039;-80
2022/06/23 04:00:18;;;;;;;5.43;3.53;;;15.60;63.10;;;;;;4935255;29;20035;-80
2022/06/23 04:02:46;;;;;;;3.75;3.13;;;15.70;64.50;;;;;;4918785;28;20581;-80
2022/06/23 04:05:17;;;;;;;6.00;3.10;;;15.90;64.50;;;;;;4919178;29;20043;-81
2022/06/23 04:07:51;;;;;;;4.93;3.22;;;16.20;63.80;;;;;;4937949;28;20027;-81
2022/06/23 04:10:36;;;;;;;4.95;3.50;;;16.20;64.20;;;;;;4920026;29;20031;-80
2022/06/23 04:13:21;;;;;;;7.35;3.63;;;16.30;63.50;;;;;;4903497;29;20035;-80
2022/06/23 04:15:49;;;;;;;5.60;3.88;;;16.40;64.10;;;;;;4934572;29;20052;-81
2022/06/23 04:18:22;;;;;;;4.95;3.90;;;16.60;64.80;;;;;;4919273;29;20561;-80
2022/06/23 04:21:02;;;;;;;5.22;3.45;;;16.80;64.70;;;;;;4925627;29;20387;-80
2022/06/23 04:23:39;;;;;;;5.30;3.25;;;17.00;64.80;;;;;;4919348;29;20031;-80
2022/06/23 04:26:12;;;;;;;6.90;3.25;;;17.10;64.00;;;;;;4921183;29;20039;-80
2022/06/23 04:28:46;;;;;;;5.60;3.13;;;17.30;64.40;;;;;;4920687;28;20057;-81
2022/06/23 04:31:25;;;;;;;4.70;2.92;;;17.50;64.00;;;;;;4931583;29;20062;-81
2022/06/23 04:33:50;;;;;;;5.55;2.97;;;17.70;63.90;;;;;;4917168;29;20159;-81
2022/06/23 04:36:27;;;;;;;7.75;3.38;;;17.90;64.20;;;;;;4919264;29;20129;-81
2022/06/23 04:38:58;;;;;;;5.70;2.97;;;18.10;64.10;;;;;;4920696;29;20106;-81
2022/06/23 04:41:30;;;;;;;8.00;3.67;;;18.30;63.80;;;;;;4928254;29;20038;-81
2022/06/23 04:43:58;;;;;;;3.95;2.55;;;18.50;63.60;;;;;;4912162;29;20038;-80
2022/06/23 04:46:50;;;;;;;9.60;3.60;;;18.70;63.60;;;;;;4917562;29;20082;-80
2022/06/23 04:49:27;;;;;;;4.43;3.10;;;18.90;63.10;;;;;;4920759;29;20093;-80
2022/06/23 04:52:12;;;;;;;4.15;3.13;;;19.00;62.20;;;;;;4913568;29;20031;-80
2022/06/23 04:54:57;;;;;;;5.63;2.78;;;19.30;61.90;;;;;;4931713;28;20027;-80
2022/06/23 04:57:26;;;;;;;6.53;3.00;;;19.50;61.40;;;;;;4921340;29;20094;-80
2022/06/23 04:59:53;;;;;;;9.32;3.13;;;19.70;63.40;;;;;;4917955;29;20047;-80
2022/06/23 05:02:29;;;;;;;4.00;2.50;;;19.90;62.80;;;;;;4912695;29;20035;-81
2022/06/23 05:04:59;;;;;;;3.88;3.10;;;20.20;63.10;;;;;;4932487;29;20047;-80
2022/06/23 05:07:28;;;;;;;7.40;3.25;;;20.40;63.30;;;;;;4925775;29;20031;-81
2022/06/23 05:10:02;;;;;;;6.72;2.78;;;20.60;62.50;;;;;;4914209;29;20035;-80
2022/06/23 05:12:32;;;;;;;3.42;2.72;;;20.80;61.40;;;;;;4929038;29;20063;-79
2022/06/23 05:15:39;;;;;;;2.88;2.50;;;21.00;60.20;;;;;;4915952;29;20509;-79
2022/06/23 05:18:16;;;;;;;8.25;3.33;;;21.40;61.70;;;;;;4898655;29;20102;-79
2022/06/23 05:20:49;;;;;;;4.07;2.47;;;21.60;61.50;;;;;;4934483;28;20054;-79
2022/06/23 05:23:17;;;;;;;3.42;2.65;;;21.90;61.00;;;;;;4933304;29;20495;-79
2022/06/23 05:25:45;;;;;;;6.70;3.10;;;22.10;60.70;;;;;;4902362;29;20034;-79
2022/06/23 05:28:28;;;;;;;4.53;2.63;;;22.30;60.50;;;;;;4914806;29;20382;-79
2022/06/23 05:30:59;;;;;;;7.10;2.65;;;22.60;60.30;;;;;;4927443;29;20484;-79
2022/06/23 05:33:29;;;;;;;3.50;2.75;;;22.90;60.00;;;;;;4927810;29;20027;-79
2022/06/23 05:36:13;;;;;;;5.20;2.65;;;23.10;59.70;;;;;;4914670;29;20038;-78
2022/06/23 05:39:02;;;;;;;6.25;2.60;;;23.40;59.60;;;;;;4914353;29;20191;-79
2022/06/23 05:41:36;;;;;;;8.73;2.70;;;23.60;59.00;;;;;;4918849;29;20031;-79
2022/06/23 05:44:08;;;;;;;4.40;2.75;;;23.80;58.90;;;;;;4926788;29;20091;-79
2022/06/23 05:46:36;;;;;;;4.88;2.53;;;24.00;59.00;;;;;;4915070;29;20023;-79
2022/06/23 05:49:06;;;;;;;5.38;3.08;;;24.20;58.80;;;;;;4913498;29;20032;-80
2022/06/23 05:51:59;;;;;;;5.38;3.15;;;24.50;58.70;;;;;;4914448;29;20086;-79
2022/06/23 05:54:34;;;;;;;4.15;2.45;;;24.80;58.50;;;;;;4933457;29;20034;-79
2022/06/23 05:57:27;;;;;;;6.93;2.50;;;25.00;58.20;;;;;;4917153;28;20046;-79
2022/06/23 06:00:01;;;;;;;5.15;2.80;;;25.30;57.50;;;;;;4948166;29;20094;-79
2022/06/23 06:02:48;;;;;;;5.38;2.47;;;25.50;57.70;;;;;;4947802;28;20028;-79
2022/06/23 06:05:34;;;;;;;3.05;2.53;;;25.80;57.50;;;;;;4914348;29;20047;-80
2022/06/23 06:08:00;;;;;;;5.32;2.90;;;26.00;57.10;;;;;;4933382;29;20037;-79
2022/06/23 06:10:27;;;;;;;7.65;2.47;;;26.20;56.90;;;;;;4930324;29;20137;-79
2022/06/23 06:12:52;;;;;;;4.55;2.53;;;26.50;57.00;;;;;;4915433;29;20558;-79
2022/06/23 06:15:29;;;;;;;6.13;3.03;;;26.80;56.70;;;;;;4932804;29;20035;-79
2022/06/23 06:18:24;;;;;;;7.75;3.15;;;27.10;56.10;;;;;;4916207;29;20039;-79
2022/06/23 06:20:51;;;;;;;4.10;2.92;;;27.40;55.50;;;;;;4944804;28;20861;-80
2022/06/23 06:23:32;;;;;;;6.22;3.08;;;27.60;55.20;;;;;;4914267;29;20040;-80
2022/06/23 06:25:57;;;;;;;4.05;2.42;;;27.80;54.70;;;;;;4916151;29;20034;-80
2022/06/23 06:28:27;;;;;;;12.20;3.13;;;28.00;55.10;;;;;;4914565;29;20024;-80
2022/06/23 06:31:06;;;;;;;6.47;2.60;;;28.20;54.40;;;;;;4911021;29;20027;-80
2022/06/23 06:34:02;;;;;;;6.90;2.67;;;28.50;54.20;;;;;;4927797;29;20031;-80
2022/06/23 06:36:36;;;;;;;5.53;2.90;;;28.70;53.80;;;;;;4945045;28;20110;-81
2022/06/23 06:39:26;;;;;;;5.45;2.50;;;28.90;53.90;;;;;;4946537;28;20492;-82
2022/06/23 06:42:00;;;;;;;8.13;2.45;;;29.20;53.20;;;;;;4918919;29;20035;-83
2022/06/23 06:44:26;;;;;;;7.85;2.92;;;29.40;53.30;;;;;;4931054;29;20063;-82
2022/06/23 06:46:51;;;;;;;4.60;2.70;;;29.60;53.00;;;;;;4913947;28;20031;-82
2022/06/23 06:49:19;;;;;;;5.40;2.63;;;29.80;52.90;;;;;;4913491;29;20546;-83
2022/06/23 06:51:44;;;;;;;6.13;2.58;;;30.10;53.20;;;;;;4914808;28;20043;-83
2022/06/23 06:54:20;;;;;;;7.28;2.60;;;30.30;52.40;;;;;;4917462;29;20082;-83
2022/06/23 06:56:57;;;;;;;4.57;1.98;;;30.60;52.20;;;;;;4912505;28;20815;-82
2022/06/23 06:59:29;;;;;;;3.65;2.45;;;30.70;51.50;;;;;;4942734;28;20039;-83
2022/06/23 07:02:04;;;;;;;5.57;2.63;;;30.90;51.60;;;;;;4923894;29;20510;-82
2022/06/23 07:04:36;;;;;;;7.43;2.25;;;31.00;51.80;;;;;;4927941;29;20491;-82
2022/06/23 07:07:06;;;;;;;3.83;2.05;;;31.30;50.60;;;;;;4928298;29;20031;-82
2022/06/23 07:09:43;;;;;;;6.75;2.40;;;31.40;50.70;;;;;;4930856;29;20039;-82
2022/06/23 07:12:12;;;;;;;4.22;2.72;;;31.60;50.80;;;;;;4933427;29;20038;-82
2022/06/23 07:14:55;;;;;;;7.30;2.47;;;32.10;50.50;;;;;;4901886;29;20418;-82
2022/06/23 07:17:37;;;;;;;4.45;2.88;;;32.20;49.10;;;;;;4929963;29;20378;-81
2022/06/23 07:20:17;;;;;;;7.05;3.00;;;32.10;51.10;;;;;;4898580;29;20475;-80
2022/06/23 07:22:48;;;;;;;4.00;2.10;;;32.30;49.10;;;;;;4913464;29;20059;-81
2022/06/23 07:25:26;;;;;;;5.82;2.80;;;31.40;47.30;;;;;;4912524;29;20751;-81
2022/06/23 07:27:55;;;;;;;5.45;2.63;;;31.10;48.80;;;;;;4915962;29;20038;-81
2022/06/23 07:30:37;;;;;;;6.05;3.00;;;31.30;50.20;;;;;;4924755;29;20032;-81
2022/06/23 07:33:32;;;;;;;3.50;2.67;;;31.80;50.60;;;;;;4906891;29;20042;-81
2022/06/23 07:36:01;;;;;;;7.93;2.90;;;32.60;49.20;;;;;;4931950;29;20503;-81
2022/06/23 07:38:34;;;;;;;4.72;3.00;;;32.80;48.70;;;;;;4946094;28;20042;-81
2022/06/23 07:41:16;;;;;;;4.68;2.65;;;32.70;48.30;;;;;;4931361;29;20391;-78
2022/06/23 07:43:52;;;;;;;3.28;2.30;;;32.30;49.40;;;;;;4930119;29;20024;-79
2022/06/23 07:46:17;;;;;;;7.53;3.03;;;32.40;49.90;;;;;;4932807;29;20563;-78
2022/06/23 07:48:43;;;;;;;2.55;2.35;;;32.60;48.80;;;;;;4898201;29;20036;-78
2022/06/23 07:51:09;;;;;;;5.78;2.42;;;32.90;47.30;;;;;;4918705;29;20031;-79
2022/06/23 07:53:38;;;;;;;3.53;2.80;;;32.50;48.90;;;;;;4919442;29;20031;-79
2022/06/23 07:56:04;;;;;;;3.33;2.90;;;33.40;48.90;;;;;;4934072;29;20046;-81
2022/06/23 07:58:32;;;;;;;6.13;3.25;;;33.70;46.40;;;;;;4931876;29;20508;-78
2022/06/23 08:01:33;;;;;;;3.92;2.90;;;33.30;46.90;;;;;;4930387;29;20475;-79
2022/06/23 08:04:08;;;;;;;6.10;2.72;;;33.20;46.30;;;;;;4883630;28;20038;-79
2022/06/23 08:06:34;;;;;;;3.53;2.77;;;33.30;45.80;;;;;;4930925;29;20035;-79
2022/06/23 08:09:02;;;;;;;5.90;3.15;;;33.60;48.80;;;;;;4929265;29;20036;-79
2022/06/23 08:14:32;;;;;;;2.95;2.50;;;33.90;46.50;;;;;;4932402;29;20504;-79
2022/06/23 08:16:57;;;;;;;;;;;33.90;45.20;;;;;;4947436;28;20043;-79
2022/06/23 08:19:40;;;;;;;8.15;2.90;;;34.50;45.70;;;;;;4920075;29;19915;-80
2022/06/23 08:22:16;;;;;;;4.82;3.28;;;34.60;47.20;;;;;;4912890;29;20138;-79
2022/06/23 08:24:43;;;;;;;3.25;2.75;;;34.70;46.40;;;;;;4913072;29;20376;-79
2022/06/23 08:27:14;;;;;;;2.80;2.60;;;34.90;46.80;;;;;;4901048;29;20059;-80
2022/06/23 08:29:45;;;;;;;4.63;3.15;;;34.70;44.00;;;;;;4912301;29;20042;-79
2022/06/23 08:32:11;;;;;;;5.82;3.00;;;34.70;45.50;;;;;;4934344;29;20035;-79
2022/06/23 08:34:37;;;;;;;6.15;3.30;;;34.80;47.10;;;;;;4929104;29;20562;-79
2022/06/23 08:37:16;;;;;;;5.68;2.95;;;34.60;43.90;;;;;;4918044;29;20081;-79
2022/06/23 08:40:01;;;;;;;4.75;2.50;;;35.20;44.90;;;;;;4931282;29;20032;-79
2022/06/23 08:42:38;;;;;;;3.30;2.47;;;35.90;45.00;;;;;;4933872;29;20122;-79
2022/06/23 08:45:21;;;;;;;4.70;2.85;;;35.80;42.80;;;;;;4927294;28;20035;-78
2022/06/23 08:47:49;;;;;;;2.88;2.67;;;35.70;44.50;;;;;;4931890;29;20529;-79
2022/06/23 08:50:30;;;;;;;9.35;3.50;;;36.30;43.60;;;;;;4932858;29;20035;-79
2022/06/23 08:53:02;;;;;;;3.63;3.17;;;36.40;44.00;;;;;;4927160;29;20039;-79
2022/06/23 08:55:39;;;;;;;7.13;3.25;;;35.90;42.80;;;;;;4915067;29;20143;-79
2022/06/23 08:58:19;;;;;;;4.75;3.10;;;36.90;43.40;;;;;;4929904;29;20033;-79
2022/06/23 09:00:55;;;;;;;3.05;2.75;;;36.70;41.50;;;;;;4952100;28;20501;-79
2022/06/23 09:03:57;;;;;;;3.88;3.00;;;36.80;43.10;;;;;;4933692;29;20059;-78
2022/06/23 09:06:41;;;;;;;4.50;3.10;;;37.10;43.00;;;;;;4906057;29;20039;-79
2022/06/23 09:09:42;;;;;;;6.53;2.58;;;37.10;42.20;;;;;;4915843;29;20031;-78
2022/06/23 09:12:15;;;;;;;6.18;2.72;;;37.30;41.60;;;;;;4910440;29;20032;-79
2022/06/23 09:15:14;;;;;;;2.92;2.42;;;36.90;39.50;;;;;;4920439;29;20406;-79
2022/06/23 09:18:02;;;;;;;6.70;2.92;;;37.10;40.50;;;;;;4920346;29;20032;-79
2022/06/23 09:20:59;;;;;;;3.38;2.40;;;37.20;41.60;;;;;;4919376;29;20031;-79
2022/06/23 09:23:31;;;;;;;3.03;2.80;;;37.50;40.10;;;;;;4910847;29;20376;-79
2022/06/23 09:26:05;;;;;;;5.38;3.05;;;37.50;39.30;;;;;;4947031;28;20395;-78
2022/06/23 09:28:46;;;;;;;2.77;2.57;;;38.30;40.60;;;;;;4918637;29;20031;-79
2022/06/23 09:31:31;;;;;;;5.65;2.65;;;38.30;39.30;;;;;;4931633;29;20054;-78
2022/06/23 09:34:12;;;;;;;2.85;2.65;;;38.30;39.10;;;;;;4914114;29;20035;-79
2022/06/23 09:37:07;;;;;;;6.47;2.80;;;38.80;39.40;;;;;;4934253;29;20028;-79
2022/06/23 09:39:49;;;;;;;2.25;2.05;;;38.30;39.40;;;;;;4919400;28;20042;-79
2022/06/23 09:42:47;;;;;;;4.15;2.75;;;38.40;38.20;;;;;;4930143;29;20445;-79
2022/06/23 09:45:30;;;;;;;2.97;2.42;;;38.80;39.00;;;;;;4932686;29;20024;-79
2022/06/23 09:48:15;;;;;;;2.95;2.63;;;39.20;38.20;;;;;;4947375;29;20043;-79
2022/06/23 09:50:51;;;;;;;2.97;2.78;;;39.00;38.20;;;;;;4948457;29;20031;-79
2022/06/23 09:53:23;;;;;;;4.78;2.50;;;38.90;36.70;;;;;;4914033;29;20035;-79
2022/06/23 09:55:55;;;;;;;5.15;2.63;;;39.00;38.40;;;;;;4929672;29;20399;-79
2022/06/23 09:58:35;;;;;;;6.45;3.22;;;39.20;38.50;;;;;;4948788;29;20039;-79
2022/06/23 10:01:23;;;;;;;2.60;2.42;;;39.60;37.90;;;;;;4937112;28;20035;-79
2022/06/23 10:03:51;;;;;;;75.70;13.75;;;39.50;38.10;;;;;;4929513;29;20444;-79
2022/06/23 10:06:32;;;;;;;5.28;2.70;;;39.60;38.30;;;;;;4946679;28;20067;-79
2022/06/23 10:09:19;;;;;;;4.60;2.80;;;39.70;37.80;;;;;;4947050;28;20031;-79
2022/06/23 10:11:47;;;;;;;4.32;2.65;;;39.90;36.80;;;;;;4942745;28;20491;-78
2022/06/23 10:14:33;;;;;;;2.50;2.30;;;39.80;36.40;;;;;;4932893;29;20058;-78
2022/06/23 10:16:58;;;;;;;6.25;2.47;;;39.70;37.50;;;;;;4946792;28;20689;-79
2022/06/23 10:19:33;;;;;;;2.75;2.30;;;40.20;36.20;;;;;;4947491;29;20174;-79
2022/06/23 10:22:20;;;;;;;5.32;2.20;;;40.40;35.80;;;;;;4947460;29;20643;-78
2022/06/23 10:25:15;;;;;;;4.25;2.58;;;40.20;36.80;;;;;;4942365;29;20023;-78
2022/06/23 10:28:14;;;;;;;3.13;2.67;;;40.30;35.70;;;;;;4931043;29;20031;-79
2022/06/23 10:31:16;;;;;;;4.28;2.65;;;40.70;36.80;;;;;;4927523;29;20031;-78
2022/06/23 10:33:49;;;;;;;4.15;2.60;;;40.40;36.50;;;;;;4943425;29;20035;-76
2022/06/23 10:36:21;;;;;;;22.67;5.50;;;40.50;36.00;;;;;;4912980;29;20534;-77
2022/06/23 10:39:02;;;;;;;3.95;2.28;;;40.60;36.00;;;;;;4932871;29;20031;-77
2022/06/23 10:42:18;;;;;;;5.00;2.28;;;40.70;35.50;;;;;;4930742;29;20028;-77
2022/06/23 10:45:06;;;;;;;6.00;2.40;;;40.40;33.90;;;;;;4202801;29;10000654;-78
2022/06/23 10:47:50;;;;;;;5.07;2.13;;;40.40;33.80;;;;;;4945482;29;20027;-78
2022/06/23 10:50:22;;;;;;;3.40;2.35;;;40.30;33.90;;;;;;4944873;29;20042;-78
2022/06/23 10:53:05;;;;;;;4.43;2.50;;;40.30;34.10;;;;;;4932524;28;20643;-78
2022/06/23 10:56:12;;;;;;;3.90;2.20;;;40.80;34.30;;;;;;4928290;29;20163;-78
2022/06/23 10:58:52;;;;;;;2.30;2.08;;;41.20;34.00;;;;;;4928677;29;20031;-77
2022/06/23 11:01:33;;;;;;;5.75;2.03;;;41.00;33.20;;;;;;4929650;29;20032;-77
2022/06/23 11:04:11;;;;;;;3.20;2.08;;;40.90;34.40;;;;;;4946150;28;20483;-77
2022/06/23 11:07:08;;;;;;;3.08;2.60;;;41.20;32.90;;;;;;4931015;29;20043;-78
2022/06/23 11:09:34;;;;;;;8.38;2.03;;;41.20;33.20;;;;;;4915111;29;20565;-77
2022/06/23 11:12:06;;;;;;;5.47;2.33;;;40.90;33.60;;;;;;4947313;28;20073;-77
2022/06/23 11:14:38;;;;;;;3.58;2.15;;;40.80;33.20;;;;;;4918891;28;20106;-78
2022/06/23 11:17:19;;;;;;;3.35;2.13;;;41.10;33.00;;;;;;4931763;28;20142;-79
2022/06/23 11:20:06;;;;;;;3.28;1.95;;;41.00;32.60;;;;;;4947532;29;20038;-78
2022/06/23 11:22:59;;;;;;;2.55;2.35;;;41.20;33.30;;;;;;4914324;29;20504;-78
2022/06/23 11:25:46;;;;;;;3.72;2.13;;;41.40;33.50;;;;;;4932346;29;20546;-78
2022/06/23 11:28:20;;;;;;;2.15;2.03;;;41.30;33.20;;;;;;4946242;28;20028;-79
2022/06/23 11:31:24;;;;;;;3.10;2.08;;;41.40;33.30;;;;;;4946819;28;20035;-77
2022/06/23 11:34:10;;;;;;;4.60;2.42;;;41.70;33.50;;;;;;4929851;28;20643;-79
2022/06/23 11:36:49;;;;;;;4.97;2.20;;;41.40;32.20;;;;;;4933548;29;20035;-78
2022/06/23 11:39:43;;;;;;;2.58;2.13;;;41.80;33.20;;;;;;4915947;29;20086;-78
2022/06/23 11:42:17;;;;;;;2.42;1.90;;;41.70;32.90;;;;;;4944230;29;20487;-76
2022/06/23 11:45:03;;;;;;;2.10;1.77;;;41.90;32.80;;;;;;4928802;29;20031;-75
2022/06/23 11:47:55;;;;;;;2.33;2.10;;;41.80;32.40;;;;;;4948843;28;20162;-77
2022/06/23 11:50:45;;;;;;;2.13;1.77;;;41.90;33.00;;;;;;4927508;29;20047;-78
2022/06/23 11:53:32;;;;;;;4.30;2.25;;;41.90;32.30;;;;;;4926596;29;20059;-78
2022/06/23 11:55:59;;;;;;;2.88;2.05;;;42.20;30.80;;;;;;4940663;29;20383;-77
2022/06/23 11:58:48;;;;;;;2.95;2.42;;;42.40;31.90;;;;;;4914544;29;20383;-78
2022/06/23 12:01:16;;;;;;;2.75;2.03;;;42.50;30.80;;;;;;4928433;29;20032;-78
2022/06/23 12:03:51;;;;;;;5.47;2.25;;;42.60;33.00;;;;;;4919037;29;20038;-79
2022/06/23 12:06:19;;;;;;;2.22;2.03;;;42.90;31.20;;;;;;4949921;29;20042;-77
2022/06/23 12:08:47;;;;;;;3.60;2.17;;;42.80;31.70;;;;;;4935730;29;20023;-78
2022/06/23 12:11:13;;;;;;;4.40;2.10;;;42.40;31.20;;;;;;4949155;29;20517;-77
2022/06/23 12:13:38;;;;;;;3.45;2.22;;;42.60;32.30;;;;;;4917389;29;20106;-77
2022/06/23 12:16:04;;;;;;;5.13;2.45;;;42.70;32.10;;;;;;4930498;29;20028;-77
2022/06/23 12:19:06;;;;;;;4.28;2.30;;;42.80;31.70;;;;;;4934198;29;20038;-77
2022/06/23 12:21:51;;;;;;;3.58;1.90;;;43.00;31.70;;;;;;4904559;29;20140;-77
2022/06/23 12:24:33;;;;;;;5.80;1.98;;;43.20;31.80;;;;;;4928971;29;20023;-78
2022/06/23 12:27:08;;;;;;;4.63;2.17;;;43.20;31.70;;;;;;4950045;28;20031;-77
2022/06/23 12:29:36;;;;;;;;;;;43.20;31.90;;;;;;4931354;29;20391;-77
2022/06/23 12:32:10;;;;;;;2.40;2.20;;;43.10;31.80;;;;;;4919710;29;20424;-77
2022/06/23 12:34:48;;;;;;;2.95;2.35;;;43.30;32.20;;;;;;4913509;29;20533;-77
2022/06/23 12:37:20;;;;;;;3.63;2.67;;;43.50;30.50;;;;;;4935968;29;20122;-77
2022/06/23 12:40:06;;;;;;;2.13;1.90;;;43.60;31.30;;;;;;4949343;29;20046;-77
2022/06/23 12:42:38;;;;;;;5.97;2.42;;;43.40;31.40;;;;;;4927905;29;20063;-77
2022/06/23 12:45:23;;;;;;;3.70;2.08;;;43.50;31.10;;;;;;4949022;29;20050;-79
2022/06/23 12:48:13;;;;;;;3.97;2.15;;;43.40;32.00;;;;;;4932264;29;20031;-79
2022/06/23 12:51:17;;;;;;;5.30;2.22;;;43.50;31.90;;;;;;4948371;29;20023;-77
2022/06/23 12:53:43;;;;;;;3.90;2.15;;;43.70;31.90;;;;;;4932792;29;20085;-78
2022/06/23 12:56:32;;;;;;;3.80;2.20;;;44.00;31.00;;;;;;4933654;29;20035;-78
2022/06/23 12:59:28;;;;;;;5.15;2.20;;;43.90;31.20;;;;;;4929844;29;20099;-79
2022/06/23 13:02:05;;;;;;;3.17;2.00;;;44.10;31.10;;;;;;4916659;29;20039;-79
2022/06/23 13:04:56;;;;;;;4.65;2.17;;;44.10;30.70;;;;;;4934392;29;20067;-79
2022/06/23 13:07:41;;;;;;;3.78;2.10;;;44.20;30.50;;;;;;4933946;29;20407;-79
2022/06/23 13:10:18;;;;;;;3.80;1.70;;;44.10;31.00;;;;;;4914066;29;20023;-79
2022/06/23 13:13:06;;;;;;;2.60;2.10;;;44.20;30.50;;;;;;4934834;29;20066;-77
2022/06/23 13:16:08;;;;;;;2.25;2.05;;;44.10;30.30;;;;;;4918411;28;20031;-79
2022/06/23 13:18:39;;;;;;;4.43;1.95;;;44.30;30.00;;;;;;4948999;29;20039;-79
2022/06/23 13:21:20;;;;;;;3.28;2.00;;;44.30;30.40;;;;;;4930045;29;20066;-78
2022/06/23 13:23:54;;;;;;;3.58;2.33;;;44.40;30.80;;;;;;4935635;29;20123;-78
2022/06/23 13:26:33;;;;;;;1.98;1.75;;;44.60;30.60;;;;;;4917093;29;20531;-78
2022/06/23 13:29:08;;;;;;;2.25;2.00;;;44.70;31.10;;;;;;4917422;29;20098;-78
2022/06/23 13:31:50;;;;;;;2.08;1.88;;;44.70;30.00;;;;;;4946465;28;20031;-78
2022/06/23 13:34:32;;;;;;;3.58;2.10;;;44.80;31.10;;;;;;4930532;29;20039;-79
2022/06/23 13:37:09;;;;;;;2.00;1.90;;;44.80;30.40;;;;;;4896418;29;20130;-78
2022/06/23 13:40:07;;;;;;;3.80;2.20;;;44.60;29.50;;;;;;4916678;29;20395;-79
2022/06/23 13:42:38;;;;;;;6.60;2.78;;;44.80;29.60;;;;;;4899930;29;20035;-78
2022/06/23 13:45:03;;;;;;;4.22;2.05;;;44.80;29.60;;;;;;4930953;29;20038;-78
2022/06/23 13:47:52;;;;;;;4.40;2.00;;;44.80;29.20;;;;;;4948780;28;20035;-79
2022/06/23 13:50:54;;;;;;;3.33;2.25;;;44.60;29.90;;;;;;4918185;29;20111;-79